Time;durP1;ratioP1;P1;durP2;ratioP2;P2;SDS_P1;SDS_P2;PMS_P1;PMS_P2;Temp;Humidity;BMP_temperature;BMP_pressure;BME280_temperature;BME280_humidity;BME280_pressure;Samples;Min_cycle;Max_cycle;Signal;HPM_P1;HPM_P2
2023/07/17 00:01:09;;;;;;;5.87;4.60;;;;;;;25.38;53.50;97360.25;5050669;28;20203;-83
2023/07/17 00:04:27;;;;;;;5.63;4.93;;;;;;;24.88;54.05;97320.22;5065645;28;20251;-82
2023/07/17 00:07:48;;;;;;;6.00;5.00;;;;;;;24.84;55.56;97354.16;5049103;28;20201;-80
2023/07/17 00:11:10;;;;;;;4.97;4.47;;;;;;;24.92;54.95;97350.72;5065808;28;20201;-79
2023/07/17 00:14:32;;;;;;;9.17;5.20;;;;;;;24.97;54.52;97338.72;5032687;28;20310;-80
2023/07/17 00:17:55;;;;;;;7.07;4.93;;;;;;;25.01;54.56;97355.13;5064416;28;20235;-82
2023/07/17 00:21:16;;;;;;;5.87;4.40;;;;;;;24.57;56.24;97356.78;5032449;28;20199;-82
2023/07/17 00:24:37;;;;;;;5.40;4.80;;;;;;;24.03;57.57;97340.88;5033183;28;20210;-82
2023/07/17 00:27:58;;;;;;;6.97;5.60;;;;;;;23.98;58.11;97327.25;5047340;28;20194;-81
2023/07/17 00:31:24;;;;;;;5.77;4.73;;;;;;;24.30;58.51;97342.75;5051641;28;20205;-81
2023/07/17 00:34:47;;;;;;;5.57;5.07;;;;;;;24.31;58.08;97355.00;5050500;28;20219;-79
2023/07/17 00:38:10;;;;;;;5.93;4.67;;;;;;;24.03;58.53;97347.03;5068168;28;20238;-79
2023/07/17 00:41:31;;;;;;;5.23;4.30;;;;;;;23.62;60.07;97349.25;5053347;28;20216;-80
2023/07/17 00:44:52;;;;;;;5.60;4.73;;;;;;;23.66;59.80;97358.56;5036632;28;20203;-84
2023/07/17 00:48:15;;;;;;;7.17;5.37;;;;;;;23.63;60.38;97353.56;5036823;28;20204;-80
2023/07/17 00:51:44;;;;;;;5.70;5.20;;;;;;;23.98;60.20;97349.28;5050720;28;20294;-82
2023/07/17 00:55:09;;;;;;;5.93;4.93;;;;;;;23.91;60.55;97334.09;5068065;28;20202;-83
2023/07/17 00:58:30;;;;;;;8.47;5.50;;;;;;;23.95;60.45;97352.19;5051047;28;20263;-79
2023/07/17 01:01:51;;;;;;;8.37;5.03;;;;;;;24.06;60.44;97352.06;5053409;28;20194;-80
2023/07/17 01:05:17;;;;;;;5.67;5.17;;;;;;;23.92;61.00;97352.50;5038736;28;20195;-81
2023/07/17 01:08:40;;;;;;;6.50;5.30;;;;;;;23.85;60.90;97335.53;5050859;28;20246;-82
2023/07/17 01:12:09;;;;;;;7.27;5.17;;;;;;;23.49;62.77;97349.56;5068741;28;20194;-82
2023/07/17 01:15:32;;;;;;;7.67;5.07;;;;;;;23.11;64.03;97354.84;5051567;28;20206;-81
2023/07/17 01:18:56;;;;;;;8.17;5.30;;;;;;;22.97;65.41;97356.09;5052438;28;20198;-82
2023/07/17 01:22:42;;;;;;;5.60;5.07;;;;;;;23.03;65.44;97338.84;5068011;28;20211;-82
2023/07/17 01:26:03;;;;;;;7.93;4.90;;;;;;;22.98;64.76;97347.19;5049832;28;20858;-83
2023/07/17 01:29:26;;;;;;;6.37;4.83;;;;;;;22.74;65.36;97341.47;5050686;28;20211;-83
2023/07/17 01:32:48;;;;;;;7.90;5.50;;;;;;;22.76;64.65;97347.47;5052608;28;20212;-83
2023/07/17 01:36:11;;;;;;;6.00;5.47;;;;;;;22.96;63.32;97346.50;5034663;28;20204;-84
2023/07/17 01:39:38;;;;;;;6.00;5.40;;;;;;;22.46;64.72;97335.13;5067515;28;20198;-81
2023/07/17 01:43:01;;;;;;;6.13;5.50;;;;;;;22.69;63.74;97340.22;5049380;28;20206;-82
2023/07/17 01:46:23;;;;;;;6.03;4.90;;;;;;;22.65;63.39;97310.59;5046925;28;20349;-83
2023/07/17 01:49:46;;;;;;;6.73;5.73;;;;;;;22.71;63.73;97325.09;5028875;28;20814;-83
2023/07/17 01:53:13;;;;;;;6.80;5.97;;;;;;;22.78;63.28;97339.38;5029992;28;20255;-83
2023/07/17 01:56:35;;;;;;;8.23;6.17;;;;;;;22.48;64.76;97342.94;5029368;28;20724;-81
2023/07/17 02:00:02;;;;;;;8.47;6.23;;;;;;;22.43;64.79;97339.88;5045927;28;20216;-82
2023/07/17 02:03:25;;;;;;;8.40;6.93;;;;;;;22.20;65.06;97312.03;5045735;28;20195;-81
2023/07/17 02:06:49;;;;;;;9.57;7.40;;;;;;;22.17;66.22;97343.97;5029492;28;20227;-82
2023/07/17 02:10:12;;;;;;;9.80;7.67;;;;;;;22.00;66.43;97342.78;5029597;28;20204;-81
2023/07/17 02:13:35;;;;;;;9.63;7.30;;;;;;;22.18;66.01;97346.47;5031565;28;20206;-80
2023/07/17 02:16:58;;;;;;;8.03;7.23;;;;;;;22.07;65.73;97335.19;5016063;28;20244;-82
2023/07/17 02:20:21;;;;;;;9.37;7.33;;;;;;;22.11;65.85;97350.63;5047298;28;20698;-84
2023/07/17 02:23:43;;;;;;;8.03;7.20;;;;;;;22.10;65.12;97346.31;5046678;28;20210;-82
2023/07/17 02:27:06;;;;;;;7.97;7.13;;;;;;;22.07;64.96;97354.47;5014865;28;20613;-82
2023/07/17 02:30:29;;;;;;;8.73;7.63;;;;;;;21.93;65.55;97351.38;5047505;28;20211;-82
2023/07/17 02:33:50;;;;;;;9.43;7.17;;;;;;;22.13;65.19;97359.25;5047300;28;20219;-84
2023/07/17 02:37:14;;;;;;;9.63;7.80;;;;;;;22.38;64.11;97357.94;5014725;28;20290;-84
2023/07/17 02:40:41;;;;;;;8.70;7.43;;;;;;;22.61;63.23;97365.50;5046673;28;20275;-84
2023/07/17 02:44:05;;;;;;;8.80;7.73;;;;;;;22.84;62.43;97360.81;5014560;28;20216;-84
2023/07/17 02:47:28;;;;;;;8.27;7.47;;;;;;;22.78;61.84;97339.38;5009084;28;20838;-81
2023/07/17 02:50:48;;;;;;;9.83;7.60;;;;;;;22.46;62.73;97326.41;5011888;28;20204;-81
2023/07/17 02:54:10;;;;;;;10.57;7.50;;;;;;;22.38;63.12;97337.63;5026717;28;20200;-81
2023/07/17 02:57:31;;;;;;;10.00;6.83;;;;;;;22.18;64.08;97356.19;5008851;28;20244;-82
2023/07/17 03:00:56;;;;;;;8.00;6.93;;;;;;;22.23;64.19;97349.56;5045695;28;20197;-82
2023/07/17 03:04:21;;;;;;;10.73;6.27;;;;;;;22.07;63.63;97314.09;5046210;28;20286;-82
2023/07/17 03:07:46;;;;;;;7.67;6.37;;;;;;;22.33;63.50;97333.72;5046087;28;20210;-83
2023/07/17 03:11:35;;;;;;;8.27;5.53;;;;;;;22.20;63.85;97338.41;5043685;28;20221;-83
2023/07/17 03:15:17;;;;;;;10.30;6.60;;;;;;;22.12;64.60;97336.44;5044875;28;20710;-82
2023/07/17 03:18:41;;;;;;;7.53;6.10;;;;;;;22.19;64.31;97334.13;5040732;28;20294;-83
2023/07/17 03:22:45;;;;;;;8.03;6.47;;;;;;;22.00;65.53;97345.44;5003999;28;20206;-82
2023/07/17 03:26:10;;;;;;;7.70;6.57;;;;;;;22.13;64.97;97346.03;4988861;28;20209;-84
2023/07/17 03:29:35;;;;;;;16.03;6.27;;;;;;;22.46;63.82;97334.31;5004306;28;20217;-83
2023/07/17 03:32:58;;;;;;;7.37;6.37;;;;;;;22.55;64.03;97334.34;4986888;28;20211;-82
2023/07/17 03:36:21;;;;;;;7.90;7.00;;;;;;;22.48;64.08;97333.19;4967536;28;20237;-81
2023/07/17 03:39:44;;;;;;;10.93;8.13;;;;;;;22.61;64.11;97343.53;4985653;28;20473;-82
2023/07/17 03:43:07;;;;;;;10.07;8.43;;;;;;;22.82;63.49;97341.63;4985720;28;20237;-82
2023/07/17 03:46:30;;;;;;;13.87;8.20;;;;;;;22.66;63.27;97304.38;5003022;28;20261;-82
2023/07/17 03:49:59;;;;;;;12.97;8.07;;;;;;;22.82;64.13;97351.34;4973758;28;20206;-81
2023/07/17 03:53:27;;;;;;;10.43;7.33;;;;;;;22.82;62.98;97324.94;4980392;28;20206;-82
2023/07/17 03:56:49;;;;;;;11.87;8.03;;;;;;;23.21;62.94;97332.72;4968515;28;20235;-84
2023/07/17 04:00:14;;;;;;;11.23;7.40;;;;;;;23.24;62.77;97343.03;4968925;28;20233;-83
2023/07/17 04:03:36;;;;;;;9.53;6.63;;;;;;;23.31;62.77;97346.75;4971332;28;20296;-84
2023/07/17 04:06:59;;;;;;;7.80;6.50;;;;;;;23.42;62.75;97351.09;5040346;28;20268;-82
2023/07/17 04:10:23;;;;;;;9.07;6.80;;;;;;;23.16;64.45;97355.25;5026195;28;20202;-82
2023/07/17 04:13:46;;;;;;;7.57;6.40;;;;;;;23.23;64.15;97354.56;4997247;28;20571;-85
2023/07/17 04:17:13;;;;;;;9.87;6.90;;;;;;;22.59;63.54;97237.22;5068642;28;20225;-84
2023/07/17 04:20:40;;;;;;;7.77;6.97;;;;;;;23.36;63.14;97356.94;5041405;28;20264;-82
2023/07/17 04:24:05;;;;;;;8.97;6.53;;;;;;;23.44;62.54;97354.41;5009741;28;20191;-82
2023/07/17 04:27:35;;;;;;;9.07;6.30;;;;;;;23.58;62.92;97355.78;5025125;28;20706;-81
2023/07/17 04:31:04;;;;;;;11.10;7.20;;;;;;;23.66;62.92;97327.63;5012231;28;20214;-83
2023/07/17 04:34:52;;;;;;;11.80;6.53;;;;;;;24.08;62.25;97359.84;5030481;28;20206;-84
2023/07/17 04:38:22;;;;;;;8.73;6.63;;;;;;;24.56;60.73;97349.00;5029285;28;20238;-80
2023/07/17 04:41:49;;;;;;;10.23;7.03;;;;;;;24.91;60.36;97364.97;5010851;28;20733;-82
2023/07/17 04:45:40;;;;;;;11.70;6.30;;;;;;;25.20;59.80;97370.06;5036478;28;20227;-82
2023/07/17 04:49:04;;;;;;;15.40;7.07;;;;;;;25.14;59.36;97360.91;5030632;28;20315;-82
2023/07/17 04:51:49;;;;;;;12.37;6.83;;;;;;;24.98;59.68;97364.22;5015414;28;20243;-82
2023/07/17 04:55:02;;;;;;;10.93;6.50;;;;;;;25.01;60.37;97379.00;5034166;28;20565;-84
2023/07/17 04:58:32;;;;;;;13.20;6.43;;;;;;;24.17;62.84;97373.03;5019288;28;20276;-84
2023/07/17 05:01:58;;;;;;;8.70;6.40;;;;;;;23.59;64.63;97368.03;5035678;28;20208;-84
2023/07/17 05:05:22;;;;;;;11.17;6.60;;;;;;;23.33;65.77;97367.78;5037401;28;20660;-82
2023/07/17 05:08:50;;;;;;;10.80;6.53;;;;;;;23.30;66.05;97373.34;5051462;28;20200;-83
2023/07/17 07:18:24;;;;;;;7.90;5.13;;;;;;;30.29;40.07;97348.91;5095941;28;20258;-82
2023/07/17 07:21:50;;;;;;;7.13;5.20;;;;;;;30.42;39.87;97338.38;5069829;28;20219;-80
2023/07/17 07:25:43;;;;;;;6.60;5.87;;;;;;;30.49;39.29;97342.81;5087821;28;20239;-81
2023/07/17 07:28:49;;;;;;;5.80;4.87;;;;;;;30.42;39.49;97333.03;5068919;28;20215;-80
2023/07/17 07:32:14;;;;;;;5.23;4.63;;;;;;;30.40;39.26;97340.41;5054810;28;20199;-81
2023/07/17 07:34:55;;;;;;;8.70;5.27;;;;;;;30.21;39.69;97319.59;5087305;28;20722;-79
2023/07/17 07:37:32;;;;;;;6.03;4.80;;;;;;;30.07;39.23;97307.06;5088182;28;20295;-80
2023/07/17 07:41:20;;;;;;;6.63;4.97;;;;;;;30.52;39.28;97336.28;5072106;28;20215;-82
2023/07/17 07:44:47;;;;;;;7.20;6.03;;;;;;;30.96;38.20;97336.16;5071650;28;20249;-80
2023/07/17 07:48:35;;;;;;;5.83;5.13;;;;;;;31.26;38.89;97333.19;5070820;28;20292;-81
2023/07/17 07:52:45;;;;;;;8.85;5.78;;;;;;;31.29;37.87;97326.63;5061193;28;20740;-79
2023/07/17 07:56:37;;;;;;;8.73;5.10;;;;;;;31.67;37.57;97333.38;5083298;28;20734;-79
2023/07/17 08:00:04;;;;;;;7.60;4.63;;;;;;;31.46;38.13;97336.06;5088507;28;20588;-83
2023/07/17 08:07:38;;;;;;;7.78;5.32;;;;;;;31.53;37.93;97328.91;5067329;28;20219;-82
2023/07/17 08:11:38;;;;;;;6.70;5.97;;;;;;;31.61;38.40;97325.28;5090361;28;20223;-80
2023/07/17 08:15:47;;;;;;;7.53;6.13;;;;;;;32.08;38.24;97326.25;5015437;28;20290;-82
2023/07/17 08:25:00;;;;;;;8.45;5.35;;;;;;;32.23;37.51;97317.25;4936867;29;20301;-80
2023/07/17 08:28:52;;;;;;;8.98;6.38;;;;;;;31.85;37.75;97314.13;4911353;29;20300;-79
2023/07/17 08:32:54;;;;;;;9.05;6.38;;;;;;;31.86;38.02;97329.19;4912615;29;20596;-80
2023/07/17 08:36:27;;;;;;;6.90;6.20;;;;;;;31.90;38.49;97315.16;4915348;29;20201;-80
2023/07/17 08:39:55;;;;;;;12.07;6.03;;;;;;;32.36;37.70;97315.47;4905540;29;20223;-79
2023/07/17 08:43:21;;;;;;;8.52;5.68;;;;;;;32.59;38.11;97307.97;4910162;29;20710;-81
2023/07/17 08:47:13;;;;;;;6.53;5.35;;;;;;;32.68;37.39;97306.75;4951048;28;20292;-80
2023/07/17 08:50:47;;;;;;;10.63;6.88;;;;;;;32.75;37.50;97307.59;4954447;28;20250;-80
2023/07/17 08:54:12;;;;;;;7.88;6.55;;;;;;;32.99;36.85;97308.09;4961113;28;20306;-80
2023/07/17 08:57:52;;;;;;;21.92;12.10;;;;;;;32.91;36.50;97301.03;5024074;28;20242;-81
2023/07/17 09:01:38;;;;;;;6.72;5.63;;;;;;;32.79;37.25;97299.94;5036919;28;20287;-81
2023/07/17 09:05:14;;;;;;;8.52;7.05;;;;;;;32.62;38.01;97294.13;5041587;28;20564;-80
2023/07/17 09:08:40;;;;;;;10.80;6.68;;;;;;;32.84;37.62;97297.50;5033162;28;20645;-81
2023/07/17 09:12:26;;;;;;;7.43;5.80;;;;;;;32.96;37.76;97295.03;5035837;28;20212;-80
2023/07/17 09:16:01;;;;;;;9.85;6.22;;;;;;;32.98;37.74;97299.22;5043995;28;20228;-82
2023/07/17 09:19:31;;;;;;;7.93;6.28;;;;;;;33.35;36.59;97295.94;5036849;28;20225;-81
2023/07/17 09:22:56;;;;;;;8.68;5.93;;;;;;;32.95;37.77;97298.78;5068784;28;20204;-81
2023/07/17 09:26:47;;;;;;;6.97;5.80;;;;;;;32.73;38.17;97290.03;5059265;28;20201;-81
2023/07/17 09:35:13;;;;;;;11.27;7.32;;;;;;;33.05;37.67;97267.84;5072793;28;20742;-85
2023/07/17 09:43:19;;;;;;;11.50;7.03;;;;;;;32.77;38.35;97275.19;5090541;28;20196;-83
2023/07/17 09:46:49;;;;;;;8.80;6.28;;;;;;;32.53;39.26;97273.06;5070261;28;20745;-82
2023/07/17 09:50:23;;;;;;;7.45;6.30;;;;;;;32.52;38.82;97269.53;5072921;28;20294;-81
2023/07/17 09:54:07;;;;;;;11.43;6.82;;;;;;;32.63;38.91;97276.19;5074619;28;20196;-83
2023/07/17 10:02:20;;;;;;;10.18;7.30;;;;;;;33.01;38.33;97245.13;5096511;28;20196;-82
2023/07/17 10:06:11;;;;;;;11.52;6.80;;;;;;;33.39;38.36;97274.88;5067160;28;20277;-84
2023/07/17 10:10:06;;;;;;;9.02;6.93;;;;;;;33.39;38.49;97270.31;5093599;28;20228;-84
2023/07/17 10:13:37;;;;;;;8.88;6.50;;;;;;;33.31;38.31;97273.22;5089209;28;20262;-81
2023/07/17 10:16:52;;;;;;;12.77;7.65;;;;;;;33.58;37.61;97257.94;5096218;28;20263;-83
2023/07/17 10:20:52;;;;;;;9.32;7.40;;;;;;;33.72;37.54;97261.47;5077538;28;20724;-83
2023/07/17 10:25:10;;;;;;;8.15;6.93;;;;;;;33.60;37.86;97262.09;5025591;28;20237;-81
2023/07/17 10:28:57;;;;;;;7.50;6.68;;;;;;;32.80;38.93;97247.94;5019114;28;20214;-82
2023/07/17 10:31:49;;;;;;;7.85;6.75;;;;;;;32.49;40.60;97248.50;5027909;28;20199;-81
2023/07/17 10:36:19;;;;;;;11.30;10.23;;;;;;;33.30;39.00;97249.28;5025121;28;20238;-81
2023/07/17 10:39:57;;;;;;;8.93;7.03;;;;;;;33.84;37.77;97251.72;4984328;28;20304;-83
2023/07/17 10:43:41;;;;;;;10.38;7.03;;;;;;;33.35;39.05;97231.50;5009486;28;20206;-81
2023/07/17 10:47:13;;;;;;;6.95;6.25;;;;;;;33.23;39.00;97211.66;4999521;28;20206;-81
2023/07/17 10:51:19;;;;;;;8.60;7.65;;;;;;;33.57;38.94;97229.44;5006557;28;20278;-82
2023/07/17 10:54:47;;;;;;;7.78;6.97;;;;;;;33.60;38.33;97234.38;4986669;28;20230;-85
2023/07/17 11:02:57;;;;;;;8.30;7.53;;;;;;;33.48;38.79;97211.84;4995070;28;20210;-84
2023/07/17 11:06:33;;;;;;;7.47;6.70;;;;;;;33.63;38.10;97213.28;4954031;28;20752;-80
2023/07/17 11:14:54;;;;;;;11.73;7.72;;;;;;;33.77;38.32;97194.44;4949585;28;20251;-82
2023/07/17 11:18:04;;;;;;;10.02;8.23;;;;;;;34.02;37.35;97209.72;4952301;29;20284;-83
2023/07/17 11:21:10;;;;;;;11.50;7.57;;;;;;;34.25;37.39;97214.56;4890662;29;20200;-81
2023/07/17 11:24:28;;;;;;;9.60;7.82;;;;;;;34.21;36.89;97216.03;4924293;29;20273;-83
2023/07/17 11:27:14;;;;;;;8.98;8.07;;;;;;;33.75;38.17;97201.91;4901178;29;20213;-81
2023/07/17 11:30:34;;;;;;;8.95;8.05;;;;;;;33.85;37.67;97178.09;4926412;29;20244;-82
2023/07/17 11:34:16;;;;;;;10.40;7.50;;;;;;;34.06;37.69;97196.66;4947372;28;20231;-82
2023/07/17 11:42:14;;;;;;;10.48;7.88;;;;;;;34.60;36.61;97194.34;4966764;28;20588;-80
2023/07/17 11:45:48;;;;;;;8.20;7.40;;;;;;;34.59;36.10;97176.53;4949327;28;20204;-79
2023/07/17 11:49:15;;;;;;;9.32;8.35;;;;;;;35.11;34.76;97176.16;4971587;28;20234;-81
2023/07/17 11:52:49;;;;;;;8.73;7.53;;;;;;;34.45;36.25;97183.00;5015766;28;20198;-80
2023/07/17 11:56:22;;;;;;;8.60;7.72;;;;;;;33.96;36.72;97180.97;5024974;28;20289;-80
2023/07/17 12:00:27;;;;;;;12.25;7.18;;;;;;;34.06;36.55;97169.78;5028867;28;20190;-84
2023/07/17 12:04:17;;;;;;;8.20;7.40;;;;;;;34.21;36.05;97146.91;5026849;28;20198;-80
2023/07/17 12:08:03;;;;;;;8.27;7.47;;;;;;;33.97;36.58;97133.38;5027244;28;20298;-81
2023/07/17 12:11:38;;;;;;;12.20;8.70;;;;;;;33.64;37.61;97163.91;5031620;28;20193;-82
2023/07/17 12:15:11;;;;;;;12.77;7.82;;;;;;;33.59;37.59;97168.25;5053122;28;20320;-83
2023/07/17 12:18:59;;;;;;;13.15;7.90;;;;;;;33.54;37.76;97163.50;5053284;28;20205;-81
2023/07/17 12:22:36;;;;;;;9.73;7.85;;;;;;;33.50;37.98;97178.41;5070825;28;20816;-82
2023/07/17 12:26:17;;;;;;;10.80;8.00;;;;;;;33.17;38.09;97161.50;5093811;28;20196;-83
2023/07/17 12:29:43;;;;;;;10.07;8.02;;;;;;;33.32;38.35;97158.56;5095589;28;20673;-81
2023/07/17 12:33:31;;;;;;;10.18;7.80;;;;;;;33.29;38.57;97162.50;5079551;28;20201;-82
2023/07/17 12:36:23;;;;;;;10.05;8.00;;;;;;;33.36;38.51;97163.31;5038093;28;20309;-80
2023/07/17 12:39:51;;;;;;;10.77;8.18;;;;;;;33.77;37.98;97168.41;5074998;28;20199;-82
2023/07/17 12:43:16;;;;;;;9.90;7.90;;;;;;;34.10;37.36;97162.91;5072366;28;20201;-81
2023/07/17 12:46:42;;;;;;;8.18;7.10;;;;;;;34.34;36.76;97154.09;5072401;28;20208;-82
2023/07/17 12:50:12;;;;;;;13.63;8.30;;;;;;;34.47;36.59;97145.13;5090652;28;20204;-82
2023/07/17 12:53:43;;;;;;;10.43;9.40;;;;;;;34.64;36.93;97152.50;5058273;28;20204;-79
2023/07/17 12:57:08;;;;;;;8.95;7.95;;;;;;;34.81;36.53;97158.97;5059683;28;20272;-80
2023/07/17 13:00:32;;;;;;;10.77;8.40;;;;;;;35.19;35.58;97157.03;5074154;28;20287;-80
2023/07/17 13:03:55;;;;;;;11.38;8.35;;;;;;;35.39;34.78;97145.22;5072500;28;20243;-80
2023/07/17 13:07:18;;;;;;;10.30;8.25;;;;;;;35.11;35.16;97160.00;5072659;28;20207;-81
2023/07/17 13:10:44;;;;;;;8.27;7.47;;;;;;;34.88;36.03;97153.53;5074555;28;20735;-80
2023/07/17 13:14:06;;;;;;;12.10;7.97;;;;;;;34.51;36.35;97147.19;5073611;28;20201;-81
2023/07/17 13:17:13;;;;;;;12.35;11.02;;;;;;;34.59;36.64;97154.16;5074072;28;20220;-80
2023/07/17 13:20:36;;;;;;;9.82;8.00;;;;;;;34.69;36.44;97147.25;5055137;28;20239;-84
2023/07/17 13:24:08;;;;;;;8.85;7.93;;;;;;;34.45;36.19;97142.66;5088007;28;20307;-80
2023/07/17 13:27:31;;;;;;;9.80;7.75;;;;;;;34.38;36.66;97141.84;5039217;28;20207;-83
2023/07/17 13:30:58;;;;;;;8.75;7.88;;;;;;;34.05;37.48;97127.78;5069481;28;20556;-82
2023/07/17 13:34:20;;;;;;;10.45;8.38;;;;;;;34.05;37.70;97146.59;5046518;28;20568;-81
2023/07/17 13:37:44;;;;;;;8.93;8.13;;;;;;;34.04;37.43;97144.97;5071604;28;20644;-83
2023/07/17 13:41:07;;;;;;;9.40;8.30;;;;;;;33.90;37.86;97140.66;5070153;28;20567;-83
2023/07/17 13:44:35;;;;;;;12.45;8.55;;;;;;;33.96;37.88;97137.94;5073077;28;20585;-81
2023/07/17 13:48:01;;;;;;;10.55;8.52;;;;;;;34.26;36.61;97133.66;5087657;28;20205;-81
2023/07/17 13:51:22;;;;;;;12.77;7.82;;;;;;;34.21;37.24;97128.09;5071146;28;20207;-80
2023/07/17 13:54:08;;;;;;;9.32;7.72;;;;;;;34.31;38.38;97128.44;5091538;28;20197;-82
2023/07/17 13:57:34;;;;;;;8.75;7.85;;;;;;;34.55;36.70;97123.34;5061290;28;20255;-85
2023/07/17 14:00:56;;;;;;;11.38;8.30;;;;;;;34.89;36.09;97114.81;5088062;28;20227;-82
2023/07/17 14:04:23;;;;;;;10.82;7.82;;;;;;;34.23;37.07;97117.16;5069730;28;20608;-82
2023/07/17 14:07:51;;;;;;;8.75;7.95;;;;;;;33.91;37.70;97107.34;5056786;28;20193;-81
2023/07/17 14:11:16;;;;;;;10.15;8.10;;;;;;;33.86;38.00;97112.56;5069718;28;20323;-80
2023/07/17 14:14:40;;;;;;;19.05;8.65;;;;;;;33.85;37.98;97110.88;5087098;28;20204;-84
2023/07/17 14:18:04;;;;;;;10.00;7.78;;;;;;;33.90;37.43;97108.41;5068678;28;20233;-83
2023/07/17 14:21:33;;;;;;;9.88;8.40;;;;;;;33.84;37.20;97083.19;5064131;28;20239;-83
2023/07/17 14:25:17;;;;;;;9.73;8.00;;;;;;;33.70;38.44;97099.59;5063508;28;20207;-81
2023/07/17 14:28:59;;;;;;;9.05;8.05;;;;;;;33.77;38.54;97111.97;5078405;28;20205;-83
2023/07/17 14:32:29;;;;;;;11.23;8.00;;;;;;;34.01;37.78;97099.66;5031265;28;20200;-85
2023/07/17 14:35:52;;;;;;;10.80;8.00;;;;;;;34.06;37.92;97097.19;5025840;28;20675;-83
2023/07/17 14:39:16;;;;;;;8.82;7.63;;;;;;;34.22;38.18;97102.03;5027913;28;20598;-82
2023/07/17 14:42:39;;;;;;;10.05;8.05;;;;;;;34.17;37.84;97102.69;5067017;28;20211;-81
2023/07/17 14:46:12;;;;;;;12.05;8.15;;;;;;;33.85;38.28;97084.84;5054577;28;20201;-83
2023/07/17 14:48:58;;;;;;;10.85;8.20;;;;;;;33.71;38.96;97101.25;5086731;28;20560;-82
2023/07/17 14:52:10;;;;;;;9.25;8.38;;;;;;;33.98;37.82;97090.16;5037686;28;20750;-83
2023/07/17 14:55:36;;;;;;;12.48;8.30;;;;;;;33.81;38.90;97088.16;5068582;28;20668;-80
2023/07/17 14:59:22;;;;;;;11.98;8.63;;;;;;;34.00;37.81;97088.13;5086571;28;20223;-81
2023/07/17 15:02:50;;;;;;;10.57;8.00;;;;;;;34.02;38.18;97085.22;5061385;28;20250;-80
2023/07/17 15:10:08;;;;;;;11.50;9.15;;;;;;;34.48;36.55;97061.50;5052887;28;20202;-81
2023/07/17 15:13:15;;;;;;;13.85;8.63;;;;;;;34.62;37.17;97067.63;5060912;28;20661;-81
2023/07/17 15:15:44;;;;;;;9.10;7.65;;;;;;;34.23;38.68;97071.44;5068884;28;20200;-82
2023/07/17 15:18:20;;;;;;;10.43;7.97;;;;;;;34.32;37.10;97062.03;5070846;28;20274;-79
2023/07/17 15:20:49;;;;;;;8.88;7.95;;;;;;;34.56;36.85;97068.50;5052529;28;20256;-79
2023/07/17 15:24:10;;;;;;;9.60;8.63;;;;;;;34.18;38.67;97066.69;5054657;28;20206;-80
2023/07/17 15:28:00;;;;;;;11.48;8.77;;;;;;;33.99;38.42;97047.94;5027151;28;20268;-85
2023/07/17 15:31:51;;;;;;;12.45;8.18;;;;;;;33.73;39.12;97056.16;5023098;28;20233;-83
2023/07/17 15:35:14;;;;;;;8.80;7.90;;;;;;;34.14;38.18;97059.28;5008903;28;20203;-82
2023/07/17 15:38:08;;;;;;;9.50;7.70;;;;;;;34.32;37.67;97062.03;5012852;28;20265;-86
2023/07/17 15:41:36;;;;;;;10.25;8.25;;;;;;;34.33;37.99;97064.50;5010560;28;20198;-82
2023/07/17 15:45:12;;;;;;;12.13;7.60;;;;;;;34.60;37.37;97064.34;5026520;28;20214;-86
2023/07/17 15:48:40;;;;;;;9.63;8.20;;;;;;;34.50;37.66;97064.81;5011863;28;20213;-85
2023/07/17 15:52:30;;;;;;;10.95;8.90;;;;;;;34.57;37.34;97059.38;5024563;28;20648;-85
2023/07/17 15:55:50;;;;;;;9.95;7.88;;;;;;;34.64;37.01;97065.53;4991993;28;20694;-83
2023/07/17 15:59:13;;;;;;;10.00;8.75;;;;;;;34.40;38.26;97054.53;5070539;28;20218;-83
2023/07/17 16:02:55;;;;;;;11.48;8.32;;;;;;;34.25;37.77;97063.97;5074662;28;20213;-84
2023/07/17 16:06:17;;;;;;;9.63;8.15;;;;;;;34.36;38.13;97047.09;5085376;28;20552;-82
2023/07/17 16:10:21;;;;;;;10.73;8.20;;;;;;;34.44;37.06;97058.41;5050798;28;20223;-82
2023/07/17 16:14:00;;;;;;;8.63;7.30;;;;;;;34.47;36.50;97059.84;5042859;28;20821;-81
2023/07/17 16:17:50;;;;;;;11.00;7.95;;;;;;;34.49;36.28;97068.56;5063445;28;20259;-81
2023/07/17 16:22:09;;;;;;;8.77;7.97;;;;;;;34.27;35.83;97070.75;5067226;28;20188;-82
2023/07/17 16:30:49;;;;;;;9.25;7.78;;;;;;;33.80;39.08;97051.59;5052792;28;20210;-83
2023/07/17 16:34:36;;;;;;;10.13;7.68;;;;;;;33.57;39.11;97060.19;5020682;28;20265;-85
2023/07/17 16:38:39;;;;;;;8.77;7.28;;;;;;;33.48;39.52;97054.19;5034133;28;20663;-85
2023/07/17 16:42:06;;;;;;;8.63;7.82;;;;;;;33.31;40.07;97050.31;5043934;28;20252;-86
2023/07/17 16:46:11;;;;;;;9.93;8.65;;;;;;;33.27;41.31;97050.97;5044111;28;20190;-83
2023/07/17 16:49:50;;;;;;;8.65;7.82;;;;;;;33.26;41.37;97054.69;5030759;28;20976;-85
2023/07/17 16:53:46;;;;;;;8.80;8.00;;;;;;;33.19;41.25;97054.72;5025794;28;20700;-80
2023/07/17 16:57:16;;;;;;;8.95;7.95;;;;;;;33.11;41.38;97059.47;5026283;28;20245;-85
2023/07/17 17:00:44;;;;;;;9.63;8.10;;;;;;;33.15;41.02;97064.22;5011385;28;20205;-84
2023/07/17 17:04:40;;;;;;;11.60;8.10;;;;;;;32.97;41.51;97055.97;5066499;28;20798;-85
2023/07/17 17:08:22;;;;;;;9.52;7.20;;;;;;;32.77;41.23;97052.47;5066259;28;20201;-84
2023/07/17 17:11:48;;;;;;;10.63;7.95;;;;;;;32.65;41.98;97051.47;5049502;28;20232;-85
2023/07/17 17:15:10;;;;;;;11.23;8.45;;;;;;;32.89;40.98;97062.38;5070098;28;20604;-84
2023/07/17 17:18:13;;;;;;;13.32;8.63;;;;;;;32.74;41.32;97045.69;5060273;28;20240;-82
2023/07/17 17:21:45;;;;;;;10.90;8.52;;;;;;;32.76;41.82;97077.69;5048577;28;20838;-84
2023/07/17 17:25:14;;;;;;;13.32;8.23;;;;;;;32.67;41.92;97046.72;5036065;28;20296;-86
2023/07/17 17:29:28;;;;;;;12.82;8.70;;;;;;;32.33;42.97;97052.28;5059144;28;20204;-82
2023/07/17 17:33:25;;;;;;;13.40;8.25;;;;;;;32.43;43.48;97066.09;5071949;28;20201;-84
2023/07/17 17:36:51;;;;;;;10.98;7.70;;;;;;;32.08;42.82;97038.63;5049952;28;20201;-85
2023/07/17 17:40:24;;;;;;;11.27;8.10;;;;;;;32.17;42.19;97076.81;5046697;28;20205;-81
2023/07/17 17:43:45;;;;;;;14.55;9.02;;;;;;;32.35;41.92;97074.34;5049835;28;20673;-82
2023/07/17 17:47:06;;;;;;;14.65;10.70;;;;;;;32.02;44.04;97069.78;5053644;28;20216;-81
2023/07/17 17:50:28;;;;;;;17.00;10.80;;;;;;;31.87;45.06;97066.41;5067861;28;20251;-82
2023/07/17 17:54:00;;;;;;;12.00;9.70;;;;;;;31.68;44.31;97096.63;5068692;28;20204;-79
2023/07/17 17:57:21;;;;;;;11.57;8.98;;;;;;;31.59;44.54;97075.56;5032870;28;20680;-76
2023/07/17 18:00:43;;;;;;;10.32;9.10;;;;;;;31.52;45.14;97091.63;5048512;28;20205;-80
2023/07/17 18:04:08;;;;;;;12.55;8.75;;;;;;;31.70;45.25;97097.25;5035981;28;20288;-84
2023/07/17 18:07:50;;;;;;;10.10;7.37;;;;;;;31.53;44.79;97103.97;5032230;28;20217;-77
2023/07/17 18:11:12;;;;;;;11.07;7.37;;;;;;;31.24;44.78;97106.88;5051510;28;20223;-84
2023/07/17 18:14:38;;;;;;;11.02;6.70;;;;;;;31.09;44.03;97108.84;5053823;28;20217;-79
2023/07/17 18:18:03;;;;;;;9.60;6.63;;;;;;;31.02;43.29;97105.28;5050674;28;20787;-86
2023/07/17 18:21:24;;;;;;;13.30;5.93;;;;;;;30.90;42.79;97114.88;5051950;28;20312;-82
2023/07/17 18:24:46;;;;;;;8.97;6.20;;;;;;;30.76;42.56;97105.91;5069486;28;20216;-82
2023/07/17 18:28:09;;;;;;;8.83;5.60;;;;;;;30.72;41.70;97125.22;5063527;28;20211;-82
2023/07/17 18:31:29;;;;;;;6.20;4.90;;;;;;;30.72;40.88;97119.88;5032154;28;20538;-83
2023/07/17 18:34:54;;;;;;;6.27;5.03;;;;;;;30.75;40.95;97133.66;5033085;28;20208;-82
2023/07/17 18:38:23;;;;;;;11.37;5.30;;;;;;;30.49;41.17;97147.66;5052064;28;20315;-82
2023/07/17 18:41:44;;;;;;;9.27;5.20;;;;;;;30.51;40.87;97158.13;5076912;28;20202;-83
2023/07/17 18:45:07;;;;;;;8.67;4.70;;;;;;;30.43;39.73;97139.56;5072907;28;20745;-82
2023/07/17 18:48:28;;;;;;;6.10;5.27;;;;;;;30.53;40.26;97150.75;5056696;28;20197;-82
2023/07/17 18:51:51;;;;;;;9.60;4.87;;;;;;;30.49;39.05;97158.34;5068302;28;20699;-80
2023/07/17 18:55:15;;;;;;;5.90;4.87;;;;;;;30.43;39.44;97159.09;5060758;28;20287;-85
2023/07/17 18:58:37;;;;;;;7.70;4.53;;;;;;;30.31;40.03;97162.47;5033502;28;20233;-82
2023/07/17 19:02:01;;;;;;;5.27;4.03;;;;;;;30.11;39.79;97156.88;5035380;28;20228;-82
2023/07/17 19:05:23;;;;;;;5.70;4.13;;;;;;;30.15;40.09;97160.00;5050214;28;20568;-82
2023/07/17 19:08:54;;;;;;;5.93;4.10;;;;;;;30.04;40.04;97169.34;5048429;28;20220;-82